createdAt,value
2019-05-16T00:01:53.884Z,7.60
2019-05-16T00:04:28.473Z,7.47
2019-05-16T00:07:01.706Z,7.20
2019-05-16T00:09:30.057Z,7.30
2019-05-16T00:11:59.371Z,7.57
2019-05-16T00:14:28.689Z,8.00
2019-05-16T00:17:00.052Z,8.23
2019-05-16T00:19:28.770Z,8.30
2019-05-16T00:21:58.749Z,8.03
2019-05-16T00:24:29.208Z,8.33
2019-05-16T00:29:31.530Z,9.20
2019-05-16T00:31:59.884Z,8.87
2019-05-16T00:34:29.146Z,9.10
2019-05-16T00:36:58.473Z,8.47
2019-05-16T00:39:30.385Z,8.57
2019-05-16T00:44:33.976Z,9.75
2019-05-16T00:47:03.249Z,8.43
2019-05-16T00:49:35.430Z,8.40
2019-05-16T00:52:03.805Z,8.30
2019-05-16T00:54:32.170Z,7.40
2019-05-16T00:57:00.516Z,8.63
2019-05-16T00:59:29.805Z,7.80
2019-05-16T01:04:32.380Z,8.93
2019-05-16T01:07:01.900Z,8.60
2019-05-16T01:09:33.177Z,8.10
2019-05-16T01:12:03.409Z,7.57
2019-05-16T01:14:32.681Z,8.80
2019-05-16T01:17:04.793Z,7.53
2019-05-16T01:19:33.165Z,9.70
2019-05-16T01:22:01.517Z,10.07
2019-05-16T01:24:29.908Z,10.00
2019-05-16T01:29:34.484Z,11.20
2019-05-16T01:32:08.314Z,10.90
2019-05-16T01:34:34.705Z,9.80
2019-05-16T01:37:04.085Z,9.60
2019-05-16T01:39:32.446Z,11.03
2019-05-16T01:42:00.960Z,10.50
2019-05-16T01:44:29.354Z,10.53
2019-05-16T01:46:58.568Z,12.65
2019-05-16T01:49:29.065Z,12.48
2019-05-16T01:51:58.378Z,11.33
2019-05-16T01:54:28.255Z,11.23
2019-05-16T01:56:59.285Z,11.87
2019-05-16T01:59:29.363Z,10.23
2019-05-16T02:02:00.799Z,11.53
2019-05-16T02:04:28.753Z,11.23
2019-05-16T02:09:29.548Z,14.65
2019-05-16T02:11:59.027Z,11.87
2019-05-16T02:14:29.129Z,12.23
2019-05-16T02:16:58.096Z,12.90
2019-05-16T02:22:02.066Z,14.80
2019-05-16T02:24:30.429Z,15.15
2019-05-16T02:26:59.117Z,14.43
2019-05-16T02:29:29.899Z,12.73
2019-05-16T02:32:02.026Z,12.90
2019-05-16T02:34:30.774Z,11.90
2019-05-16T02:39:35.109Z,16.00
2019-05-16T02:42:03.447Z,16.55
2019-05-16T02:44:32.375Z,17.23
2019-05-16T02:47:01.661Z,15.52
2019-05-16T02:49:30.650Z,16.23
2019-05-16T02:52:02.866Z,14.80
2019-05-16T02:54:31.704Z,15.17
2019-05-16T03:02:15.301Z,16.80
2019-05-16T03:04:44.395Z,13.80
2019-05-16T03:07:30.240Z,15.90
2019-05-16T03:09:41.369Z,13.63
2019-05-16T03:12:10.696Z,13.57
2019-05-16T03:14:38.114Z,15.27
2019-05-16T03:17:06.470Z,13.40
2019-05-16T03:19:34.828Z,12.97
2019-05-16T03:22:03.176Z,13.33
2019-05-16T03:24:31.518Z,12.37
2019-05-16T03:27:03.676Z,13.17
2019-05-16T03:29:32.033Z,13.43
2019-05-16T03:32:03.046Z,13.17
2019-05-16T03:34:34.447Z,13.53
2019-05-16T03:37:04.155Z,14.10
2019-05-16T03:39:31.188Z,12.47
2019-05-16T03:42:00.902Z,12.63
2019-05-16T03:44:31.482Z,14.50
2019-05-16T03:47:00.971Z,14.43
2019-05-16T03:49:31.242Z,13.30
2019-05-16T03:51:56.777Z,13.80
2019-05-16T03:54:25.129Z,18.00
2019-05-16T03:56:55.448Z,18.23
2019-05-16T03:59:27.742Z,15.13
2019-05-16T04:01:56.091Z,15.97
2019-05-16T04:04:30.884Z,15.67
2019-05-16T04:07:01.313Z,16.40
2019-05-16T04:09:31.519Z,17.60
2019-05-16T04:12:01.890Z,17.83
2019-05-16T04:14:30.696Z,20.70
2019-05-16T04:16:55.905Z,18.70
2019-05-16T04:19:26.290Z,16.60
2019-05-16T04:21:54.667Z,16.33
2019-05-16T04:24:23.027Z,15.83
2019-05-16T04:26:51.843Z,22.48
2019-05-16T04:29:20.888Z,18.97
2019-05-16T04:31:50.887Z,18.20
2019-05-16T04:34:30.852Z,17.00
2019-05-16T04:37:00.896Z,17.63
2019-05-16T04:42:04.929Z,20.48
2019-05-16T04:44:33.305Z,16.70
2019-05-16T04:47:01.853Z,16.40
2019-05-16T04:49:31.875Z,17.40
2019-05-16T04:52:00.589Z,19.27
2019-05-16T04:54:30.574Z,17.60
2019-05-16T04:56:56.921Z,17.83
2019-05-16T04:59:25.472Z,15.60
2019-05-16T05:01:53.831Z,18.35
2019-05-16T05:04:26.141Z,15.33
2019-05-16T05:09:31.372Z,17.20
2019-05-16T05:12:01.290Z,16.57
2019-05-16T05:14:25.443Z,14.90
2019-05-16T05:16:54.794Z,12.90
2019-05-16T05:19:23.156Z,14.77
2019-05-16T05:21:52.457Z,14.20
2019-05-16T05:24:20.812Z,15.20
2019-05-16T05:26:50.407Z,14.17
2019-05-16T05:29:20.054Z,13.90
2019-05-16T05:31:55.087Z,14.53
2019-05-16T05:34:19.858Z,12.80
2019-05-16T05:36:51.999Z,13.00
2019-05-16T05:39:20.337Z,13.30
2019-05-16T05:41:50.460Z,13.33
2019-05-16T05:47:10.778Z,15.82
2019-05-16T05:49:54.671Z,14.50
2019-05-16T05:52:23.032Z,13.47
2019-05-16T05:55:02.507Z,12.80
2019-05-16T05:57:40.487Z,14.00
2019-05-16T06:00:09.902Z,11.70
2019-05-16T06:02:47.064Z,13.57
2019-05-16T06:05:15.421Z,13.90
2019-05-16T06:07:50.933Z,12.70
2019-05-16T06:10:20.362Z,12.73
2019-05-16T06:12:54.218Z,14.30
2019-05-16T06:15:22.589Z,12.07
2019-05-16T06:17:55.907Z,14.40
2019-05-16T06:20:24.365Z,12.57
2019-05-16T06:22:53.691Z,16.17
2019-05-16T06:25:23.443Z,15.13
2019-05-16T06:27:51.399Z,15.40
2019-05-16T06:30:21.280Z,15.82
2019-05-16T06:32:50.039Z,17.33
2019-05-16T06:37:55.856Z,16.50
2019-05-16T06:43:03.565Z,16.40
2019-05-16T06:45:35.298Z,14.47
2019-05-16T06:48:03.648Z,14.23
2019-05-16T06:50:33.997Z,14.17
2019-05-16T06:53:12.994Z,15.30
2019-05-16T06:55:41.341Z,14.37
2019-05-16T06:58:26.500Z,15.67
2019-05-16T07:01:05.578Z,14.77
2019-05-16T07:03:36.114Z,14.63
2019-05-16T07:06:37.854Z,13.90
2019-05-16T07:08:45.853Z,14.43
2019-05-16T07:11:24.234Z,15.50
2019-05-16T07:13:52.627Z,14.00
2019-05-16T07:16:21.034Z,14.98
2019-05-16T07:18:50.615Z,14.80
2019-05-16T07:21:20.293Z,12.60
2019-05-16T07:23:48.104Z,13.60
2019-05-16T07:26:24.751Z,13.23
2019-05-16T07:28:54.036Z,14.43
2019-05-16T07:31:30.826Z,13.07
2019-05-16T07:34:14.655Z,13.27
2019-05-16T07:36:41.514Z,12.67
2019-05-16T07:41:46.111Z,13.73
2019-05-16T07:44:14.657Z,12.90
2019-05-16T07:46:44.611Z,12.27
2019-05-16T07:49:34.977Z,14.00
2019-05-16T07:52:09.796Z,12.93
2019-05-16T07:54:36.027Z,12.40
2019-05-16T07:57:15.644Z,11.93
2019-05-16T07:59:33.741Z,13.40
2019-05-16T08:02:21.252Z,10.73
2019-05-16T08:04:50.233Z,10.30
2019-05-16T08:07:33.570Z,11.45
2019-05-16T08:10:01.149Z,10.80
2019-05-16T08:15:15.564Z,8.93
2019-05-16T08:17:44.856Z,10.63
2019-05-16T08:20:14.150Z,8.37
2019-05-16T08:25:21.761Z,8.20
2019-05-16T08:30:31.738Z,7.47
2019-05-16T08:33:14.536Z,8.33
2019-05-16T08:38:27.071Z,8.20
2019-05-16T08:43:31.589Z,8.50
2019-05-16T08:46:03.514Z,7.90
2019-05-16T08:48:32.469Z,7.40
2019-05-16T08:51:02.945Z,8.15
2019-05-16T08:53:31.605Z,7.70
2019-05-16T08:56:05.615Z,7.93
2019-05-16T08:58:47.300Z,6.67
2019-05-16T09:01:17.318Z,6.63
2019-05-16T09:03:56.077Z,6.80
2019-05-16T09:06:32.048Z,7.63
2019-05-16T09:10:29.683Z,8.43
2019-05-16T09:11:41.423Z,7.83
2019-05-16T09:14:02.059Z,7.73
2019-05-16T09:16:30.349Z,6.30
2019-05-16T09:18:58.706Z,7.20
2019-05-16T09:21:27.569Z,7.23
2019-05-16T09:23:57.953Z,7.40
2019-05-16T09:28:59.963Z,7.67
2019-05-16T09:31:28.331Z,6.80
2019-05-16T09:33:59.417Z,7.77
2019-05-16T09:36:28.192Z,7.93
2019-05-16T09:38:57.799Z,6.75
2019-05-16T09:41:27.093Z,6.60
2019-05-16T09:43:52.848Z,7.43
2019-05-16T09:46:21.177Z,7.07
2019-05-16T09:48:49.524Z,7.07
2019-05-16T09:51:21.071Z,7.72
2019-05-16T09:53:47.122Z,7.27
2019-05-16T09:56:16.787Z,7.70
2019-05-16T09:58:42.905Z,7.30
2019-05-16T10:01:12.165Z,7.10
2019-05-16T10:06:18.925Z,6.95
2019-05-16T10:11:18.063Z,7.18
2019-05-16T10:13:47.123Z,7.50
2019-05-16T10:16:16.557Z,7.87
2019-05-16T10:18:42.469Z,8.57
2019-05-16T10:21:10.815Z,7.70
2019-05-16T10:23:39.153Z,7.65
2019-05-16T10:26:07.505Z,8.10
2019-05-16T10:31:10.146Z,7.80
2019-05-16T10:33:39.169Z,8.20
2019-05-16T10:36:08.433Z,8.23
2019-05-16T10:38:37.429Z,8.45
2019-05-16T10:41:03.534Z,8.10
2019-05-16T10:43:31.890Z,8.20
2019-05-16T10:46:00.238Z,9.57
2019-05-16T10:48:28.576Z,8.70
2019-05-16T10:50:57.751Z,8.03
2019-05-16T10:53:52.269Z,7.60
2019-05-16T10:55:56.897Z,8.33
2019-05-16T11:01:26.561Z,8.02
2019-05-16T11:06:06.047Z,7.87
2019-05-16T11:08:32.163Z,9.07
2019-05-16T11:11:00.487Z,8.70
2019-05-16T11:13:28.855Z,9.00
2019-05-16T11:15:57.201Z,8.60
2019-05-16T11:18:27.294Z,8.20
2019-05-16T11:20:53.885Z,8.70
2019-05-16T11:23:23.902Z,9.05
2019-05-16T11:25:50.593Z,8.77
2019-05-16T11:28:19.285Z,8.47
2019-05-16T11:30:47.745Z,8.20
2019-05-16T11:33:17.385Z,9.07
2019-05-16T11:35:47.274Z,8.60
2019-05-16T11:38:13.322Z,9.13
2019-05-16T11:40:41.645Z,8.80
2019-05-16T11:43:18.032Z,8.83
2019-05-16T11:45:38.388Z,9.47
2019-05-16T11:48:06.746Z,9.10
2019-05-16T11:50:37.261Z,9.40
2019-05-16T11:53:03.457Z,9.47
2019-05-16T11:58:06.996Z,9.70
2019-05-16T12:03:09.549Z,9.80
2019-05-16T12:05:37.889Z,8.70
2019-05-16T12:08:09.459Z,9.60
2019-05-16T12:10:37.788Z,8.93
2019-05-16T12:13:09.025Z,9.52
2019-05-16T12:15:36.539Z,9.57
2019-05-16T12:18:05.222Z,9.13
2019-05-16T12:20:32.133Z,9.67
2019-05-16T12:23:00.501Z,10.47
2019-05-16T12:25:28.851Z,9.52
2019-05-16T12:30:32.481Z,9.45
2019-05-16T12:35:36.851Z,9.60
2019-05-16T12:38:03.569Z,9.60
2019-05-16T12:40:31.907Z,8.90
2019-05-16T12:43:00.287Z,10.40
2019-05-16T12:45:28.644Z,9.20
2019-05-16T12:50:34.325Z,9.60
2019-05-16T12:53:02.670Z,9.60
2019-05-16T12:55:31.073Z,9.40
2019-05-16T12:58:14.010Z,9.77
2019-05-16T13:00:44.120Z,8.97
2019-05-16T13:03:08.018Z,9.00
2019-05-16T13:05:47.741Z,8.80
2019-05-16T13:08:17.225Z,9.45
2019-05-16T13:10:43.385Z,9.20
2019-05-16T13:13:17.641Z,9.10
2019-05-16T13:15:44.058Z,9.10
2019-05-16T13:18:12.458Z,9.60
2019-05-16T13:20:46.709Z,9.63
2019-05-16T13:23:15.090Z,9.30
2019-05-16T13:25:44.507Z,10.40
2019-05-16T13:28:12.872Z,9.83
2019-05-16T13:30:41.226Z,8.33
2019-05-16T13:33:12.691Z,8.47
2019-05-16T13:36:02.508Z,9.40
2019-05-16T13:38:49.679Z,8.90
2019-05-16T13:41:18.368Z,8.90
2019-05-16T13:43:52.523Z,9.00
2019-05-16T13:46:26.447Z,9.27
2019-05-16T13:48:52.628Z,9.70
2019-05-16T13:51:20.998Z,10.53
2019-05-16T13:56:23.619Z,9.57
2019-05-16T13:58:58.990Z,10.33
2019-05-16T14:01:27.839Z,8.37
2019-05-16T14:06:30.034Z,8.90
2019-05-16T14:08:58.333Z,9.80
2019-05-16T14:11:26.676Z,8.37
2019-05-16T14:13:58.997Z,8.87
2019-05-16T14:16:27.360Z,8.50
2019-05-16T14:19:07.634Z,7.40
2019-05-16T14:21:42.718Z,9.47
2019-05-16T14:24:11.788Z,8.30
2019-05-16T14:26:40.177Z,8.57
2019-05-16T14:29:12.158Z,9.27
2019-05-16T14:31:46.934Z,8.50
2019-05-16T14:34:17.733Z,8.50
2019-05-16T14:36:47.357Z,10.70
2019-05-16T14:39:18.879Z,11.12
2019-05-16T14:41:48.689Z,10.90
2019-05-16T14:44:18.263Z,8.90
2019-05-16T14:49:24.657Z,9.05
2019-05-16T14:52:04.170Z,8.30
2019-05-16T14:59:57.481Z,9.10
2019-05-16T15:02:27.525Z,7.83
2019-05-16T15:05:07.853Z,8.90
2019-05-16T15:10:12.150Z,8.43
2019-05-16T15:12:46.724Z,8.07
2019-05-16T15:15:21.144Z,8.40
2019-05-16T15:17:41.864Z,8.33
2019-05-16T15:20:11.377Z,8.47
2019-05-16T15:22:40.644Z,8.50
2019-05-16T15:27:57.600Z,9.20
2019-05-16T15:30:25.344Z,7.90
2019-05-16T15:33:01.942Z,8.57
2019-05-16T15:35:30.638Z,8.23
2019-05-16T15:37:58.971Z,7.85
2019-05-16T15:40:26.999Z,9.27
2019-05-16T15:42:59.039Z,8.77
2019-05-16T15:45:38.537Z,9.02
2019-05-16T15:48:03.186Z,8.90
2019-05-16T15:50:32.766Z,8.87
2019-05-16T15:53:02.054Z,8.70
2019-05-16T15:55:30.396Z,9.53
2019-05-16T15:57:58.753Z,8.52
2019-05-16T16:00:38.817Z,9.20
2019-05-16T16:03:12.353Z,9.23
2019-05-16T16:05:49.193Z,8.80
2019-05-16T16:08:18.424Z,9.10
2019-05-16T16:10:47.769Z,9.40
2019-05-16T16:13:19.446Z,10.40
2019-05-16T16:15:51.373Z,9.33
2019-05-16T16:18:13.448Z,8.53
2019-05-16T16:23:18.107Z,9.43
2019-05-16T16:28:22.754Z,9.10
2019-05-16T16:30:56.762Z,9.73
2019-05-16T16:33:27.301Z,9.73
2019-05-16T16:35:56.949Z,9.10
2019-05-16T16:38:22.673Z,10.20
2019-05-16T16:40:57.664Z,10.23
2019-05-16T16:43:26.049Z,10.70
2019-05-16T16:46:06.022Z,10.40
2019-05-16T16:48:26.658Z,9.90
2019-05-16T16:50:54.195Z,9.30
2019-05-16T16:53:22.542Z,11.27
2019-05-16T16:55:51.793Z,11.43
2019-05-16T16:58:20.151Z,10.37
2019-05-16T17:01:07.317Z,9.50
2019-05-16T17:06:10.433Z,12.77
2019-05-16T17:08:38.811Z,12.50
2019-05-16T17:11:11.592Z,12.03
2019-05-16T17:16:25.212Z,13.62
2019-05-16T17:18:43.473Z,14.40
2019-05-16T17:21:11.837Z,13.30
2019-05-16T17:23:40.264Z,13.75
2019-05-16T17:31:20.066Z,13.57
2019-05-16T17:34:02.020Z,14.60
2019-05-16T17:36:38.107Z,13.60
2019-05-16T17:39:06.476Z,12.73
2019-05-16T17:41:38.053Z,13.27
2019-05-16T17:44:09.826Z,15.43
2019-05-16T17:46:41.028Z,14.23
2019-05-16T17:49:12.417Z,13.23
2019-05-16T17:51:47.980Z,13.17
2019-05-16T17:54:17.299Z,13.90
2019-05-16T17:56:49.159Z,14.75
2019-05-16T17:59:17.522Z,14.23
2019-05-16T18:01:54.318Z,14.00
2019-05-16T18:04:22.700Z,12.90
2019-05-16T18:07:11.258Z,14.73
2019-05-16T18:09:43.043Z,13.83
2019-05-16T18:12:11.209Z,14.35
2019-05-16T18:14:39.598Z,15.47
2019-05-16T18:17:08.300Z,14.70
2019-05-16T18:19:57.137Z,14.03
2019-05-16T18:22:24.601Z,13.67
2019-05-16T18:24:53.713Z,14.40
2019-05-16T18:27:22.105Z,14.27
2019-05-16T18:29:50.600Z,15.70
2019-05-16T18:32:18.951Z,14.47
2019-05-16T18:34:47.341Z,15.10
2019-05-16T18:40:11.726Z,15.27
2019-05-16T18:42:40.080Z,13.63
2019-05-16T18:45:16.322Z,15.70
2019-05-16T18:47:46.950Z,14.80
2019-05-16T18:50:14.297Z,15.20
2019-05-16T18:52:42.658Z,13.87
2019-05-16T18:55:16.921Z,14.67
2019-05-16T19:00:21.013Z,16.62
2019-05-16T19:02:52.834Z,16.37
2019-05-16T19:05:21.210Z,17.05
2019-05-16T19:07:49.580Z,16.20
2019-05-16T19:10:21.545Z,14.83
2019-05-16T19:12:49.934Z,14.17
2019-05-16T19:17:58.749Z,16.60
2019-05-16T19:23:06.553Z,16.90
2019-05-16T19:25:32.520Z,15.70
2019-05-16T19:30:39.812Z,16.65
2019-05-16T19:33:17.504Z,16.37
2019-05-16T19:35:44.226Z,15.63
2019-05-16T19:40:50.836Z,17.27
2019-05-16T19:43:21.529Z,16.60
2019-05-16T19:45:49.889Z,15.03
2019-05-16T19:50:52.498Z,17.10
2019-05-16T19:53:21.787Z,16.60
2019-05-16T19:55:50.141Z,15.47
2019-05-16T19:58:31.080Z,14.50
2019-05-16T20:03:47.234Z,15.18
2019-05-16T20:06:16.819Z,14.47
2019-05-16T20:08:43.663Z,14.50
2019-05-16T20:11:16.892Z,13.20
2019-05-16T20:13:43.634Z,13.80
2019-05-16T20:16:36.742Z,16.50
2019-05-16T20:19:09.183Z,14.33
2019-05-16T20:21:40.441Z,15.43
2019-05-16T20:24:07.708Z,14.77
2019-05-16T20:26:36.821Z,14.00
2019-05-16T20:29:07.527Z,13.80
2019-05-16T20:31:33.678Z,13.47
2019-05-16T20:34:14.359Z,15.43
2019-05-16T20:36:42.717Z,14.50
2019-05-16T20:41:59.321Z,15.38
2019-05-16T20:44:22.676Z,15.20
2019-05-16T20:46:51.017Z,14.90
2019-05-16T20:51:57.800Z,16.92
2019-05-16T20:54:28.315Z,18.10
2019-05-16T20:56:57.379Z,15.30
2019-05-16T20:59:37.629Z,15.17
2019-05-16T21:04:42.221Z,17.25
2019-05-16T21:07:11.337Z,15.10
2019-05-16T21:09:38.917Z,16.80
2019-05-16T21:12:08.429Z,17.27
2019-05-16T21:14:36.641Z,17.95
2019-05-16T21:17:06.642Z,17.70
2019-05-16T21:19:36.753Z,17.20
2019-05-16T21:24:38.815Z,18.33
2019-05-16T21:29:41.365Z,18.70
2019-05-16T21:32:09.708Z,18.33
2019-05-16T21:34:38.081Z,19.90
2019-05-16T21:37:17.089Z,19.60
2019-05-16T21:39:41.022Z,16.53
2019-05-16T21:44:47.555Z,21.60
2019-05-16T21:47:22.913Z,19.77
2019-05-16T21:49:59.761Z,17.57
2019-05-16T21:52:28.853Z,17.20
2019-05-16T21:54:56.654Z,17.37
2019-05-16T21:57:26.799Z,18.00
2019-05-16T21:59:54.337Z,16.83
2019-05-16T22:02:23.652Z,18.87
2019-05-16T22:04:52.950Z,18.00
2019-05-16T22:07:33.068Z,16.70
2019-05-16T22:09:58.940Z,18.03
2019-05-16T22:12:27.322Z,18.87
2019-05-16T22:17:36.620Z,20.80
2019-05-16T22:20:07.049Z,18.10
2019-05-16T22:22:34.471Z,17.10
2019-05-16T22:25:03.838Z,21.25
2019-05-16T22:27:32.193Z,20.30
2019-05-16T22:30:07.923Z,16.67
2019-05-16T22:35:17.348Z,18.55
2019-05-16T22:37:54.865Z,18.27
2019-05-16T22:40:26.519Z,17.07
2019-05-16T22:42:52.814Z,16.40
2019-05-16T22:45:27.017Z,22.30
2019-05-16T22:47:54.711Z,19.50
2019-05-16T22:50:24.008Z,18.67
2019-05-16T22:52:52.360Z,19.10
2019-05-16T22:57:57.982Z,23.30
2019-05-16T23:00:39.018Z,18.87
2019-05-16T23:03:08.624Z,18.73
2019-05-16T23:05:40.911Z,18.10
2019-05-16T23:08:22.685Z,18.17
2019-05-16T23:10:51.018Z,19.17
2019-05-16T23:13:19.391Z,19.33
2019-05-16T23:15:47.765Z,19.30
2019-05-16T23:18:19.458Z,19.67
2019-05-16T23:20:48.718Z,17.53
2019-05-16T23:23:17.526Z,24.58
2019-05-16T23:25:49.020Z,26.40
2019-05-16T23:33:36.599Z,26.00
2019-05-16T23:36:07.117Z,21.00
2019-05-16T23:38:36.704Z,17.30
2019-05-16T23:41:07.357Z,16.53
2019-05-16T23:43:37.339Z,15.40
2019-05-16T23:48:40.366Z,19.92
2019-05-16T23:51:09.611Z,21.60
2019-05-16T23:53:37.993Z,17.90
2019-05-16T23:56:11.564Z,16.70
2019-05-16T23:58:39.948Z,17.00
